Time;durP1;ratioP1;P1;durP2;ratioP2;P2;SDS_P1;SDS_P2;PMS_P1;PMS_P2;Temp;Humidity;BMP_temperature;BMP_pressure;BME280_temperature;BME280_humidity;BME280_pressure;Samples;Min_cycle;Max_cycle;Signal;HPM_P1;HPM_P2
2023/05/14 00:01:01;;;;;;;16.83;12.70;;;;;;;17.60;50.07;93364.88;5011736;28;20060;-89
2023/05/14 00:03:26;;;;;;;18.05;12.70;;;;;;;17.59;49.85;93363.38;5021866;28;20540;-89
2023/05/14 00:05:52;;;;;;;17.83;12.38;;;;;;;17.59;49.82;93357.19;5016013;28;20098;-89
2023/05/14 00:08:17;;;;;;;15.02;11.82;;;;;;;17.60;49.87;93364.13;5064781;28;20044;-89
2023/05/14 00:10:43;;;;;;;17.88;12.43;;;;;;;17.54;49.91;93353.22;5026876;28;20045;-88
2023/05/14 00:13:08;;;;;;;14.98;11.07;;;;;;;17.58;49.89;93347.50;5065222;28;20040;-89
2023/05/14 00:15:33;;;;;;;17.00;12.93;;;;;;;17.60;49.61;93345.00;5014612;28;20419;-90
2023/05/14 00:17:59;;;;;;;16.80;12.05;;;;;;;17.56;49.74;93336.31;5010895;28;20543;-88
2023/05/14 00:20:24;;;;;;;15.68;11.35;;;;;;;17.56;49.48;93339.06;5011156;28;20091;-89
2023/05/14 00:22:50;;;;;;;14.82;11.80;;;;;;;17.56;50.20;93328.88;5013173;28;20042;-90
2023/05/14 00:25:15;;;;;;;17.17;12.35;;;;;;;17.55;49.38;93338.31;5000000;28;20025;-89
2023/05/14 00:27:41;;;;;;;15.93;11.75;;;;;;;17.57;49.82;93341.28;5015791;28;20049;-89
2023/05/14 00:30:07;;;;;;;15.20;11.38;;;;;;;17.56;49.84;93339.78;5031623;28;20439;-89
2023/05/14 00:32:33;;;;;;;15.10;11.55;;;;;;;17.59;49.57;93333.31;5025620;28;20087;-89
2023/05/14 00:34:58;;;;;;;17.77;12.98;;;;;;;17.54;49.95;93331.34;5014800;28;20308;-89
2023/05/14 00:37:23;;;;;;;16.70;11.90;;;;;;;17.54;49.85;93330.66;5014855;28;20495;-89
2023/05/14 00:39:49;;;;;;;17.70;11.45;;;;;;;17.55;49.87;93332.09;5026433;28;20158;-89
2023/05/14 00:42:14;;;;;;;17.92;12.52;;;;;;;17.57;49.60;93332.34;5015546;28;20055;-89
2023/05/14 00:44:40;;;;;;;16.80;12.32;;;;;;;17.52;49.79;93333.88;5030988;28;20041;-88
2023/05/14 00:47:06;;;;;;;15.98;11.85;;;;;;;17.52;49.72;93320.22;5025646;28;20049;-89
2023/05/14 00:49:31;;;;;;;15.25;11.48;;;;;;;17.54;49.85;93325.19;5032108;28;20065;-89
2023/05/14 00:51:59;;;;;;;12.88;10.55;;;;;;;17.55;49.67;93324.66;5059107;28;20076;-89
2023/05/14 00:54:24;;;;;;;14.75;11.13;;;;;;;17.53;49.56;93315.50;5033221;28;20033;-88
2023/05/14 00:56:50;;;;;;;14.52;10.95;;;;;;;17.54;50.05;93322.44;5031874;28;20557;-88
2023/05/14 00:59:15;;;;;;;15.48;11.25;;;;;;;17.52;49.88;93322.22;5030651;28;20041;-89
2023/05/14 01:01:41;;;;;;;12.73;9.95;;;;;;;17.55;49.55;93323.91;5012509;28;20068;-88
2023/05/14 01:04:06;;;;;;;13.07;9.77;;;;;;;17.55;49.67;93324.66;5034817;28;20475;-89
2023/05/14 01:06:50;;;;;;;12.70;9.85;;;;;;;17.54;49.80;93317.69;5018841;28;20037;-88
2023/05/14 01:09:40;;;;;;;15.68;10.32;;;;;;;17.56;49.57;93317.19;5030787;28;20052;-89
2023/05/14 01:12:28;;;;;;;14.15;9.68;;;;;;;17.52;49.65;93317.47;5043156;28;20044;-90
2023/05/14 01:15:16;;;;;;;13.95;10.20;;;;;;;17.54;49.86;93317.69;5065005;28;20037;-88
2023/05/14 01:17:50;;;;;;;12.57;9.60;;;;;;;17.55;49.89;93312.97;5041887;28;20037;-88
2023/05/14 01:20:16;;;;;;;14.20;10.25;;;;;;;17.54;49.88;93317.69;5016330;28;20111;-89
2023/05/14 01:22:41;;;;;;;15.45;10.93;;;;;;;17.50;49.31;93303.59;5029017;28;20508;-89
2023/05/14 01:25:07;;;;;;;13.38;10.63;;;;;;;17.53;49.18;93313.50;5054460;28;20561;-88
2023/05/14 01:27:46;;;;;;;14.63;11.25;;;;;;;17.48;49.85;93308.81;5011454;28;20118;-89
2023/05/14 01:30:24;;;;;;;14.52;9.63;;;;;;;17.50;49.81;93311.03;5041129;28;20041;-89
2023/05/14 01:32:55;;;;;;;15.18;10.88;;;;;;;17.49;49.67;93299.38;5025895;28;20372;-89
2023/05/14 01:35:22;;;;;;;14.45;10.38;;;;;;;17.48;49.63;93295.88;5013756;28;20029;-88
2023/05/14 01:37:47;;;;;;;14.60;10.82;;;;;;;17.46;49.53;93298.38;5047775;28;20045;-88
2023/05/14 01:40:14;;;;;;;13.75;10.55;;;;;;;17.48;49.70;93303.34;5022345;28;20040;-90
2023/05/14 01:42:39;;;;;;;12.90;9.50;;;;;;;17.48;49.91;93297.88;5014128;28;20052;-89
2023/05/14 01:45:05;;;;;;;13.38;9.65;;;;;;;17.47;49.76;93299.13;5014777;28;20056;-88
2023/05/14 01:47:30;;;;;;;14.35;9.45;;;;;;;17.48;50.16;93290.41;5023342;28;20132;-89
2023/05/14 01:49:56;;;;;;;12.70;9.65;;;;;;;17.47;49.82;93296.41;5002820;28;20055;-89
2023/05/14 01:52:21;;;;;;;13.43;9.07;;;;;;;17.47;49.76;93282.72;5021311;28;20053;-89
2023/05/14 01:54:47;;;;;;;14.68;10.43;;;;;;;17.51;49.57;93285.19;5042056;28;20041;-89
2023/05/14 01:57:12;;;;;;;11.63;8.90;;;;;;;17.48;49.67;93287.69;5013389;28;20049;-89
2023/05/14 01:59:38;;;;;;;11.90;9.32;;;;;;;17.48;49.84;93295.16;5031165;28;20547;-90
2023/05/14 02:02:03;;;;;;;10.95;9.10;;;;;;;17.49;49.72;93291.16;5022372;28;20042;-89
2023/05/14 02:04:29;;;;;;;12.07;8.75;;;;;;;17.46;49.89;93292.91;5029187;28;20048;-88
2023/05/14 02:06:54;;;;;;;12.27;9.13;;;;;;;17.51;49.70;93282.47;5011891;28;20042;-89
2023/05/14 02:09:20;;;;;;;13.13;9.93;;;;;;;17.46;49.56;93281.25;5022540;28;20033;-89
2023/05/14 02:11:45;;;;;;;13.25;9.63;;;;;;;17.48;49.90;93282.22;5030360;28;20044;-89
2023/05/14 02:14:11;;;;;;;14.88;9.63;;;;;;;17.48;49.57;93290.41;5065060;28;20041;-90
2023/05/14 02:16:36;;;;;;;14.40;9.70;;;;;;;17.48;49.52;93284.22;5027131;28;20092;-88
2023/05/14 02:19:01;;;;;;;11.95;8.95;;;;;;;17.47;49.71;93286.19;5014964;28;20045;-89
2023/05/14 02:21:27;;;;;;;13.90;9.02;;;;;;;17.46;49.70;93283.97;5033277;28;20044;-89
2023/05/14 02:23:52;;;;;;;11.45;8.60;;;;;;;17.48;49.49;93284.22;5044434;28;20056;-88
2023/05/14 02:26:18;;;;;;;11.98;8.73;;;;;;;17.46;49.73;93282.00;5028507;28;20038;-88
2023/05/14 02:28:44;;;;;;;11.32;8.32;;;;;;;17.51;49.47;93279.72;4996074;28;20467;-89
2023/05/14 02:31:09;;;;;;;11.80;8.82;;;;;;;17.53;49.36;93275.25;5017437;28;20168;-88
2023/05/14 02:33:35;;;;;;;13.77;8.73;;;;;;;17.47;49.48;93275.28;5032228;28;20048;-89
2023/05/14 02:36:00;;;;;;;12.73;8.90;;;;;;;17.48;49.49;93268.56;5048486;28;20044;-89
2023/05/14 02:38:26;;;;;;;11.48;8.52;;;;;;;17.48;49.51;93276.00;5026836;28;20036;-90
2023/05/14 02:40:51;;;;;;;11.20;8.48;;;;;;;17.50;49.08;93267.31;5035938;28;20040;-89
2023/05/14 02:43:17;;;;;;;13.43;9.00;;;;;;;17.43;49.49;93274.06;5052537;28;20037;-89
2023/05/14 02:45:42;;;;;;;10.60;8.40;;;;;;;17.46;49.85;93273.78;5011112;28;20041;-90
2023/05/14 02:48:08;;;;;;;11.50;8.27;;;;;;;17.48;49.65;93278.75;5018005;28;20398;-90
2023/05/14 02:50:33;;;;;;;11.27;8.55;;;;;;;17.47;49.53;93263.59;5036120;28;20531;-89
2023/05/14 02:52:58;;;;;;;11.38;8.73;;;;;;;17.45;49.85;93272.31;5035552;28;20040;-89
2023/05/14 02:55:25;;;;;;;11.95;8.45;;;;;;;17.49;49.32;93261.09;5053188;28;20051;-90
2023/05/14 02:57:52;;;;;;;10.10;7.82;;;;;;;17.51;49.57;93264.06;5035033;28;20045;-89
2023/05/14 03:00:17;;;;;;;10.85;8.15;;;;;;;17.47;49.57;93263.59;5009076;28;20351;-89
2023/05/14 03:02:43;;;;;;;13.23;9.10;;;;;;;17.47;49.59;93264.34;5035493;28;20044;-89
2023/05/14 03:05:08;;;;;;;11.27;8.32;;;;;;;17.47;49.41;93258.88;5018679;28;20037;-89
2023/05/14 03:07:34;;;;;;;12.38;8.20;;;;;;;17.46;49.24;93254.66;5001344;28;20105;-89
2023/05/14 03:09:59;;;;;;;9.43;7.60;;;;;;;17.47;49.50;93249.94;5021533;28;20044;-89
2023/05/14 03:12:25;;;;;;;11.18;7.60;;;;;;;17.48;49.43;93252.16;5008840;28;20083;-90
2023/05/14 03:14:50;;;;;;;10.63;7.80;;;;;;;17.46;49.62;93253.91;5008446;28;20042;-89
2023/05/14 03:17:16;;;;;;;11.27;7.95;;;;;;;17.43;49.22;93246.72;4996903;28;20056;-89
2023/05/14 03:19:41;;;;;;;11.25;7.93;;;;;;;17.43;49.38;93244.00;5030691;28;20048;-89
2023/05/14 03:22:07;;;;;;;10.98;7.47;;;;;;;17.45;49.32;93247.72;4996766;28;20111;-89
2023/05/14 03:24:32;;;;;;;10.98;7.30;;;;;;;17.45;49.33;93247.72;5030700;28;20037;-89
2023/05/14 03:26:57;;;;;;;9.98;7.68;;;;;;;17.46;49.27;93245.72;5031029;28;20037;-88
2023/05/14 03:29:23;;;;;;;12.38;7.88;;;;;;;17.41;49.47;93243.75;5005471;28;20829;-90
2023/05/14 03:31:49;;;;;;;9.32;7.57;;;;;;;17.45;49.40;93250.44;4993675;28;20049;-90
2023/05/14 03:34:14;;;;;;;9.82;7.05;;;;;;;17.44;49.71;93251.69;4985072;28;20050;-89
2023/05/14 03:36:40;;;;;;;9.75;7.15;;;;;;;17.41;49.28;93255.44;4998464;28;20393;-89
2023/05/14 03:39:08;;;;;;;9.43;7.30;;;;;;;17.41;49.40;93257.44;5000055;28;20037;-88
2023/05/14 03:41:34;;;;;;;10.68;7.40;;;;;;;17.46;49.29;93256.66;4996473;28;20200;-89
2023/05/14 03:44:00;;;;;;;10.55;7.45;;;;;;;17.44;49.80;93250.94;4999517;28;20085;-89
2023/05/14 03:46:25;;;;;;;10.88;7.32;;;;;;;17.45;49.43;93253.19;4996929;28;20049;-88
2023/05/14 03:48:50;;;;;;;8.02;6.78;;;;;;;17.45;49.49;93247.72;5029723;28;20703;-89
2023/05/14 03:51:16;;;;;;;11.10;7.70;;;;;;;17.45;49.19;93255.91;5042626;28;20037;-89
2023/05/14 03:53:41;;;;;;;10.48;7.38;;;;;;;17.53;49.38;93253.38;5021046;28;20073;-89
2023/05/14 03:56:07;;;;;;;9.13;7.40;;;;;;;17.63;49.09;93260.00;4977904;28;20041;-89
2023/05/14 03:58:32;;;;;;;9.38;7.25;;;;;;;17.67;48.90;93243.34;5003676;28;20057;-88
2023/05/14 04:00:59;;;;;;;8.70;6.75;;;;;;;17.67;48.99;93240.59;5040396;28;20095;-89
2023/05/14 04:03:24;;;;;;;10.35;7.40;;;;;;;17.68;48.78;93248.31;5030553;28;20083;-89
2023/05/14 04:05:49;;;;;;;8.30;6.72;;;;;;;17.67;48.80;93246.81;5016434;28;20037;-89
2023/05/14 04:08:16;;;;;;;9.80;7.47;;;;;;;17.70;49.04;93248.53;5012230;28;20041;-89
2023/05/14 04:10:41;;;;;;;9.57;7.40;;;;;;;17.73;48.80;93247.53;5047532;28;20040;-89
2023/05/14 04:13:08;;;;;;;8.75;7.18;;;;;;;17.76;48.82;93240.25;5049931;28;20033;-89
2023/05/14 04:15:34;;;;;;;9.57;7.32;;;;;;;17.79;48.66;93236.50;5004146;28;20047;-89
2023/05/14 04:18:00;;;;;;;8.40;7.18;;;;;;;17.78;48.57;93232.31;5000726;28;20083;-90
2023/05/14 04:20:25;;;;;;;9.38;7.32;;;;;;;17.80;48.53;93232.53;4980980;28;20135;-90
2023/05/14 04:22:51;;;;;;;9.35;6.82;;;;;;;17.83;48.82;93228.78;4977822;28;20269;-89
2023/05/14 04:25:17;;;;;;;9.65;6.85;;;;;;;17.81;48.82;93228.53;5015376;28;20120;-90
2023/05/14 04:27:42;;;;;;;11.82;6.72;;;;;;;17.77;48.79;93231.56;4998996;28;20053;-89
2023/05/14 04:30:08;;;;;;;8.27;6.63;;;;;;;17.76;48.95;93232.06;4976992;28;20038;-90
2023/05/14 04:32:34;;;;;;;9.38;7.20;;;;;;;17.73;49.07;93235.84;4982611;28;20257;-89
2023/05/14 04:35:00;;;;;;;8.35;6.88;;;;;;;17.69;48.69;93241.59;4998676;28;20520;-90
2023/05/14 04:37:27;;;;;;;10.77;7.30;;;;;;;17.68;48.99;93234.63;4982696;28;20049;-89
2023/05/14 04:39:52;;;;;;;8.93;7.00;;;;;;;17.74;48.83;93229.88;4997837;28;20112;-89
2023/05/14 04:42:18;;;;;;;9.70;6.72;;;;;;;17.70;48.82;93231.41;4994848;28;20038;-90
2023/05/14 04:44:43;;;;;;;8.27;6.40;;;;;;;17.70;48.58;93232.13;5001312;28;20038;-90
2023/05/14 04:47:09;;;;;;;8.80;6.90;;;;;;;17.69;49.22;93230.66;5006560;28;20037;-89
2023/05/14 04:49:34;;;;;;;9.60;6.88;;;;;;;17.66;48.90;93239.13;5015081;28;20042;-89
2023/05/14 04:52:00;;;;;;;9.43;6.90;;;;;;;17.71;48.70;93235.59;4976113;28;20049;-89
2023/05/14 04:54:25;;;;;;;8.13;6.57;;;;;;;17.70;48.92;93239.59;5010727;28;20049;-90
2023/05/14 04:56:50;;;;;;;8.10;6.53;;;;;;;17.70;48.82;93240.34;4998488;28;20037;-90
2023/05/14 04:59:16;;;;;;;9.02;6.55;;;;;;;17.73;48.60;93235.84;5001886;28;20045;-89
2023/05/14 05:01:41;;;;;;;9.75;6.70;;;;;;;17.76;48.96;93232.81;5036731;28;20474;-89
2023/05/14 05:04:07;;;;;;;8.52;6.60;;;;;;;17.76;48.77;93226.59;5051403;28;20098;-89
2023/05/14 05:06:32;;;;;;;9.07;6.47;;;;;;;17.73;48.69;93231.13;5028165;28;20037;-91
2023/05/14 05:08:58;;;;;;;9.40;6.38;;;;;;;17.79;48.38;93236.50;5035109;28;20563;-89
2023/05/14 05:11:23;;;;;;;8.85;6.47;;;;;;;17.80;48.94;93238.75;5015724;28;20048;-89
2023/05/14 05:13:49;;;;;;;8.55;6.38;;;;;;;17.81;48.76;93231.28;5030146;28;20045;-90
2023/05/14 05:16:14;;;;;;;8.50;6.22;;;;;;;17.78;48.94;93235.03;5018427;28;20041;-88
2023/05/14 05:18:40;;;;;;;9.40;7.18;;;;;;;17.77;48.74;93233.56;5019192;28;20044;-90
2023/05/14 05:21:05;;;;;;;8.18;6.63;;;;;;;17.80;48.84;93232.53;5025331;28;20030;-90
2023/05/14 05:23:31;;;;;;;8.27;6.22;;;;;;;17.82;48.76;93224.56;5034164;28;20049;-89
2023/05/14 05:25:56;;;;;;;6.88;5.32;;;;;;;17.84;48.80;93227.53;5036370;28;20036;-89
2023/05/14 05:28:22;;;;;;;7.13;5.88;;;;;;;17.81;48.62;93229.28;5034896;28;20051;-90
2023/05/14 05:30:47;;;;;;;8.38;6.05;;;;;;;17.85;48.16;93226.28;5055867;28;20560;-89
2023/05/14 05:33:12;;;;;;;9.35;5.95;;;;;;;17.83;48.81;93231.50;5021617;28;20053;-90
2023/05/14 05:35:38;;;;;;;9.02;6.18;;;;;;;17.82;48.63;93232.75;5011943;28;20037;-89
2023/05/14 05:38:03;;;;;;;8.82;6.22;;;;;;;17.85;48.60;93214.59;5013802;28;20396;-89
2023/05/14 05:40:29;;;;;;;9.35;6.00;;;;;;;17.80;48.79;93227.81;5017189;28;20041;-89
2023/05/14 05:42:54;;;;;;;8.23;6.10;;;;;;;17.85;48.72;93220.06;5010501;28;20053;-90
2023/05/14 05:45:20;;;;;;;7.70;5.82;;;;;;;17.81;48.77;93218.34;5014683;28;20045;-90
2023/05/14 05:47:45;;;;;;;7.75;6.10;;;;;;;17.85;48.79;93215.34;5008885;28;20045;-90
2023/05/14 05:50:11;;;;;;;7.90;5.57;;;;;;;17.84;48.79;93216.59;5012330;28;20973;-90
2023/05/14 05:52:39;;;;;;;7.70;6.10;;;;;;;17.86;48.61;93213.34;5017310;28;20039;-89
2023/05/14 05:55:05;;;;;;;6.90;5.28;;;;;;;17.84;48.61;93213.13;5016202;28;20439;-89
2023/05/14 05:57:30;;;;;;;6.68;5.30;;;;;;;17.89;48.72;93215.06;5028415;28;20048;-90
2023/05/14 05:59:56;;;;;;;8.20;5.93;;;;;;;17.85;49.05;93215.34;5017052;28;20037;-89
2023/05/14 06:02:24;;;;;;;7.63;5.93;;;;;;;17.90;48.67;93224.75;5050288;28;20037;-90
2023/05/14 06:04:50;;;;;;;7.07;5.53;;;;;;;17.89;48.54;93229.47;5013639;28;20710;-89
2023/05/14 06:07:15;;;;;;;7.93;5.75;;;;;;;17.89;48.79;93226.00;5032957;28;20033;-90
2023/05/14 06:09:40;;;;;;;6.78;5.55;;;;;;;17.89;48.59;93226.75;5034655;28;20045;-89
2023/05/14 06:12:07;;;;;;;7.57;5.45;;;;;;;17.95;48.87;93221.22;5027763;28;20029;-90
2023/05/14 06:14:33;;;;;;;6.18;5.28;;;;;;;17.95;48.57;93216.50;5035934;28;20045;-89
2023/05/14 06:16:58;;;;;;;7.43;5.80;;;;;;;17.91;48.50;93221.50;5037743;28;20029;-89
2023/05/14 06:19:24;;;;;;;6.80;5.53;;;;;;;17.94;48.84;93211.53;5016133;28;20032;-89
2023/05/14 06:21:49;;;;;;;7.97;6.00;;;;;;;17.95;48.53;93224.69;5053789;28;20373;-89
2023/05/14 06:24:15;;;;;;;7.07;5.47;;;;;;;17.93;48.84;93219.00;5034629;28;20450;-90
2023/05/14 06:26:41;;;;;;;7.68;5.65;;;;;;;17.96;48.68;93223.44;5009458;28;20041;-90
2023/05/14 06:29:07;;;;;;;6.40;5.15;;;;;;;17.95;48.63;93221.22;5050997;28;20128;-90
2023/05/14 06:31:32;;;;;;;6.88;5.40;;;;;;;17.97;48.93;93218.72;5021587;28;20106;-90
2023/05/14 06:33:58;;;;;;;7.93;5.47;;;;;;;17.98;48.64;93231.84;5021520;28;20037;-90
2023/05/14 06:36:23;;;;;;;6.38;5.10;;;;;;;17.97;48.78;93221.47;5051080;28;20033;-90
2023/05/14 06:38:49;;;;;;;7.15;4.95;;;;;;;17.99;48.48;93224.41;5037741;28;20458;-90
2023/05/14 06:41:15;;;;;;;7.07;5.35;;;;;;;18.00;48.56;93220.41;5021134;28;20408;-90
2023/05/14 06:43:40;;;;;;;6.97;5.32;;;;;;;17.98;48.85;93231.13;5083163;28;20411;-90
2023/05/14 06:46:06;;;;;;;6.13;4.80;;;;;;;18.01;48.92;93225.38;5022062;28;20041;-90
2023/05/14 06:48:32;;;;;;;5.65;4.88;;;;;;;18.04;48.54;93234.53;5021951;28;20045;-89
2023/05/14 06:50:57;;;;;;;8.48;6.03;;;;;;;18.00;48.41;93223.16;5013733;28;20052;-89
2023/05/14 06:53:23;;;;;;;7.40;5.55;;;;;;;17.97;48.40;93230.38;5018756;28;20041;-90
2023/05/14 06:55:48;;;;;;;6.30;4.95;;;;;;;18.04;48.84;93221.63;5039030;28;20041;-90
2023/05/14 06:58:16;;;;;;;6.85;5.15;;;;;;;18.02;48.70;93231.56;5032346;28;20037;-89
2023/05/14 07:00:43;;;;;;;6.72;5.63;;;;;;;18.02;48.77;93232.31;5038344;28;20041;-90
2023/05/14 07:03:09;;;;;;;7.22;6.05;;;;;;;18.03;48.95;93241.28;5036791;28;20037;-89
2023/05/14 07:05:35;;;;;;;6.85;5.75;;;;;;;18.03;48.84;93220.13;5047893;28;20093;-90
2023/05/14 07:08:00;;;;;;;6.97;5.35;;;;;;;18.03;48.72;93224.84;5047254;28;20090;-90
2023/05/14 07:10:26;;;;;;;7.43;5.88;;;;;;;18.02;49.01;93221.38;5036648;28;20029;-90
2023/05/14 07:12:51;;;;;;;7.05;5.35;;;;;;;17.99;48.74;93210.72;5014545;28;20048;-90
2023/05/14 07:15:17;;;;;;;8.43;6.28;;;;;;;18.01;48.46;93210.94;5016141;28;20455;-89
2023/05/14 07:17:42;;;;;;;6.05;5.20;;;;;;;18.00;48.80;93220.41;5011010;28;20083;-89
2023/05/14 07:20:16;;;;;;;8.40;6.22;;;;;;;17.96;48.98;93206.31;5042413;28;20044;-89
2023/05/14 07:22:42;;;;;;;7.50;5.95;;;;;;;17.96;48.81;93209.03;5034118;28;20049;-89
2023/05/14 07:25:07;;;;;;;7.60;6.20;;;;;;;17.97;48.80;93205.75;5050726;28;20454;-89
2023/05/14 07:27:33;;;;;;;7.85;5.95;;;;;;;17.96;48.75;93201.56;5014399;28;20194;-89
2023/05/14 07:29:58;;;;;;;7.55;6.18;;;;;;;18.00;48.98;93198.53;5034567;28;20045;-89
2023/05/14 07:32:24;;;;;;;6.55;5.65;;;;;;;17.97;48.72;93199.56;5016669;28;20492;-89
2023/05/14 07:34:49;;;;;;;7.57;5.97;;;;;;;17.97;48.43;93192.09;5013428;28;20053;-90
2023/05/14 07:37:16;;;;;;;7.85;5.45;;;;;;;18.02;48.45;93198.75;5012553;28;20091;-91
2023/05/14 07:39:41;;;;;;;6.57;5.82;;;;;;;17.98;48.85;93195.56;5014231;28;20065;-90
2023/05/14 07:42:07;;;;;;;7.53;5.57;;;;;;;17.97;48.75;93199.56;5029441;28;20086;-91
2023/05/14 07:44:32;;;;;;;6.43;5.40;;;;;;;17.98;48.78;93201.03;5067304;28;20041;-92
2023/05/14 07:46:57;;;;;;;9.02;5.53;;;;;;;17.95;48.99;93200.09;5034826;28;20040;-92
2023/05/14 07:49:23;;;;;;;6.78;5.25;;;;;;;17.96;48.68;93193.38;5008817;28;20075;-92
2023/05/14 07:51:48;;;;;;;9.00;5.90;;;;;;;17.97;48.74;93189.34;5027956;28;20037;-91
2023/05/14 07:54:14;;;;;;;7.57;5.60;;;;;;;17.94;48.63;93184.94;5029903;28;20447;-91
2023/05/14 07:56:40;;;;;;;7.38;5.93;;;;;;;17.95;48.39;93185.66;5019026;28;20512;-92
2023/05/14 07:59:06;;;;;;;7.25;6.13;;;;;;;17.96;48.69;93181.69;5032978;28;20045;-92
2023/05/14 08:01:31;;;;;;;6.85;5.80;;;;;;;17.95;48.66;93174.72;5018743;28;20056;-91
2023/05/14 08:03:57;;;;;;;8.77;6.93;;;;;;;17.91;48.66;93180.47;5027552;28;20045;-90
2023/05/14 08:06:26;;;;;;;7.93;6.53;;;;;;;17.90;48.92;93173.53;5031804;28;20048;-91
2023/05/14 08:08:51;;;;;;;6.35;5.53;;;;;;;17.95;48.81;93175.47;5017087;28;20148;-90
2023/05/14 08:11:17;;;;;;;8.70;6.05;;;;;;;17.95;48.75;93178.22;5009140;28;20088;-90
2023/05/14 08:13:42;;;;;;;7.45;6.05;;;;;;;17.97;48.67;93172.22;5062266;28;20037;-91
2023/05/14 08:16:08;;;;;;;7.78;6.18;;;;;;;17.94;48.62;93171.25;5032332;28;20119;-91
2023/05/14 08:18:33;;;;;;;8.02;5.75;;;;;;;17.95;48.82;93175.47;5006864;28;20208;-90
2023/05/14 08:20:58;;;;;;;7.32;5.65;;;;;;;17.95;48.80;93164.53;4996761;28;20088;-92
2023/05/14 08:23:25;;;;;;;9.25;5.90;;;;;;;17.97;48.71;93162.00;5014686;28;20048;-90
2023/05/14 08:25:51;;;;;;;9.85;5.97;;;;;;;17.94;48.76;93168.53;5011879;28;20048;-92
2023/05/14 08:28:16;;;;;;;6.38;5.72;;;;;;;17.96;48.47;93163.28;5014936;28;20045;-90
2023/05/14 08:30:42;;;;;;;7.53;5.90;;;;;;;17.93;48.49;93164.31;5015904;28;20558;-90
2023/05/14 08:33:07;;;;;;;7.35;5.10;;;;;;;17.91;48.62;93166.81;5010790;28;20037;-90
2023/05/14 08:35:32;;;;;;;6.43;5.63;;;;;;;17.94;48.86;93156.84;5015510;28;20033;-90
2023/05/14 08:37:58;;;;;;;7.00;5.93;;;;;;;17.92;48.65;93153.88;5065566;28;20087;-91
2023/05/14 08:40:23;;;;;;;7.03;5.82;;;;;;;17.93;48.61;93158.84;5030026;28;20101;-91
2023/05/14 08:42:50;;;;;;;5.78;5.18;;;;;;;17.91;48.93;93161.34;5034522;28;20055;-90
2023/05/14 08:45:24;;;;;;;7.22;5.97;;;;;;;17.91;48.79;93158.59;5015363;28;20051;-91
2023/05/14 08:47:50;;;;;;;6.65;5.35;;;;;;;17.90;48.89;93151.66;5011355;28;20071;-91
2023/05/14 08:50:15;;;;;;;8.02;6.18;;;;;;;17.93;48.73;93158.84;5013832;28;20041;-91
2023/05/14 08:52:41;;;;;;;7.57;6.22;;;;;;;17.90;49.02;93159.84;5022706;28;20116;-91
2023/05/14 08:55:07;;;;;;;8.30;6.05;;;;;;;17.90;48.98;93154.38;5028817;28;20457;-91
2023/05/14 08:57:32;;;;;;;6.97;5.53;;;;;;;17.92;49.02;93159.34;5017121;28;20045;-91
2023/05/14 08:59:58;;;;;;;8.65;5.78;;;;;;;17.92;48.95;93149.16;5031862;28;20036;-91
2023/05/14 09:02:30;;;;;;;6.80;5.65;;;;;;;17.91;48.93;93152.41;5012152;28;20044;-91
2023/05/14 09:04:57;;;;;;;5.95;5.35;;;;;;;17.90;49.31;93148.91;5017690;28;20034;-90
2023/05/14 09:07:22;;;;;;;6.22;5.10;;;;;;;17.89;48.74;93147.44;5034912;28;20072;-91
2023/05/14 09:09:48;;;;;;;6.95;5.15;;;;;;;17.92;48.94;93157.34;5032978;28;20896;-91
2023/05/14 09:12:13;;;;;;;7.65;5.20;;;;;;;17.93;48.82;93142.44;5023423;28;20492;-91
2023/05/14 09:14:41;;;;;;;5.75;4.97;;;;;;;17.91;49.08;93139.47;5018460;28;20041;-91
2023/05/14 09:17:07;;;;;;;11.65;6.18;;;;;;;17.90;48.92;93150.91;5000964;28;20041;-91
2023/05/14 09:19:32;;;;;;;5.70;5.00;;;;;;;17.89;48.87;93150.16;5038086;28;20044;-92
2023/05/14 09:21:59;;;;;;;5.43;4.75;;;;;;;17.90;48.67;93148.19;5024081;28;20040;-91
2023/05/14 09:24:25;;;;;;;5.68;4.95;;;;;;;17.90;48.97;93148.91;5032756;28;20049;-91
2023/05/14 09:26:55;;;;;;;5.72;4.97;;;;;;;17.92;48.76;93151.16;5060305;28;20040;-91
2023/05/14 09:29:20;;;;;;;7.50;5.30;;;;;;;17.92;49.03;93156.63;5029221;28;20115;-91
2023/05/14 09:31:46;;;;;;;6.18;5.32;;;;;;;17.91;49.13;93163.34;5068806;28;20057;-91
2023/05/14 09:34:12;;;;;;;5.72;5.10;;;;;;;17.96;49.00;93163.28;5022004;28;20136;-91
2023/05/14 09:36:37;;;;;;;5.85;5.10;;;;;;;17.92;48.92;93157.34;5039059;28;20060;-91
2023/05/14 09:39:04;;;;;;;5.95;4.93;;;;;;;17.91;48.72;93155.13;5020454;28;20060;-92
2023/05/14 09:41:29;;;;;;;5.90;5.18;;;;;;;17.91;48.73;93146.94;5019830;28;20049;-91
2023/05/14 09:43:56;;;;;;;6.22;5.07;;;;;;;17.91;49.29;93134.00;5025186;28;20056;-92
2023/05/14 09:46:22;;;;;;;5.72;5.13;;;;;;;17.91;48.54;93146.94;5021468;28;20046;-93
2023/05/14 09:48:48;;;;;;;5.93;5.32;;;;;;;17.95;48.89;93137.19;5029541;28;20052;-91
2023/05/14 09:51:13;;;;;;;8.27;5.72;;;;;;;17.88;48.55;93151.44;5013042;28;20037;-91
2023/05/14 09:53:40;;;;;;;5.70;5.10;;;;;;;17.91;49.32;93166.06;5013349;28;20669;-91
2023/05/14 09:56:06;;;;;;;6.03;4.95;;;;;;;17.90;49.11;93151.66;5012633;28;20102;-92
2023/05/14 09:58:31;;;;;;;6.88;5.43;;;;;;;17.93;48.61;93147.91;5017278;28;20041;-91
2023/05/14 10:00:57;;;;;;;6.18;5.25;;;;;;;17.90;49.06;93150.91;5033288;28;20098;-91
2023/05/14 10:03:28;;;;;;;7.03;5.03;;;;;;;17.90;48.92;93139.97;5012370;28;20041;-91
2023/05/14 10:05:58;;;;;;;6.32;5.40;;;;;;;17.91;48.98;93146.94;5034931;28;20061;-91
2023/05/14 10:08:25;;;;;;;7.03;5.00;;;;;;;17.87;48.78;93155.41;5033457;28;20056;-91
2023/05/14 10:10:53;;;;;;;5.97;4.90;;;;;;;17.93;49.06;93147.91;5013836;28;20037;-91
2023/05/14 10:13:21;;;;;;;6.43;5.22;;;;;;;17.88;49.21;93154.16;5041912;28;20053;-91
2023/05/14 10:16:04;;;;;;;6.68;5.57;;;;;;;17.88;49.05;93150.69;5017901;28;20042;-91
2023/05/14 10:18:35;;;;;;;6.43;5.45;;;;;;;17.88;48.98;93145.97;5033229;28;20059;-91
2023/05/14 10:21:04;;;;;;;7.28;6.25;;;;;;;17.90;49.21;93148.19;5018512;28;20105;-91
2023/05/14 10:23:30;;;;;;;6.22;5.45;;;;;;;17.90;49.17;93150.91;5017086;28;20141;-91
2023/05/14 10:25:56;;;;;;;6.93;5.88;;;;;;;17.90;49.02;93148.19;5025186;28;20037;-91
2023/05/14 10:28:22;;;;;;;6.05;5.45;;;;;;;17.91;49.19;93150.41;5016213;28;20120;-91
2023/05/14 10:30:49;;;;;;;6.65;5.65;;;;;;;17.88;49.23;93143.22;5019050;28;20049;-91
2023/05/14 10:33:15;;;;;;;6.03;5.40;;;;;;;17.87;49.33;93149.94;5013690;28;20037;-91
2023/05/14 10:36:00;;;;;;;6.43;5.28;;;;;;;17.86;49.09;93143.00;5016239;28;20400;-91
2023/05/14 10:38:28;;;;;;;5.85;5.25;;;;;;;17.91;49.35;93149.66;5020838;28;20064;-90
2023/05/14 10:41:00;;;;;;;7.70;5.82;;;;;;;17.88;49.05;93150.69;5048695;28;20041;-92
2023/05/14 10:43:29;;;;;;;7.05;5.88;;;;;;;17.85;49.30;93148.97;5021212;28;20037;-91
2023/05/14 10:45:57;;;;;;;8.95;6.25;;;;;;;17.82;49.38;93150.75;5018159;28;20029;-90
2023/05/14 10:48:23;;;;;;;6.82;5.80;;;;;;;17.84;49.13;93150.22;5053504;28;20100;-92
2023/05/14 10:50:52;;;;;;;5.40;4.90;;;;;;;17.85;49.23;93149.72;5018207;28;20088;-91
2023/05/14 10:53:53;;;;;;;6.18;4.88;;;;;;;17.83;49.13;93143.28;5015662;28;20056;-92
2023/05/14 10:56:18;;;;;;;7.43;5.93;;;;;;;17.88;49.05;93147.94;4996885;28;20077;-92
2023/05/14 10:58:44;;;;;;;5.72;5.13;;;;;;;17.86;49.11;93142.25;4996604;28;20046;-90
2023/05/14 11:01:11;;;;;;;5.55;5.05;;;;;;;17.86;49.50;93137.53;4991763;28;20069;-91
2023/05/14 11:03:46;;;;;;;5.95;5.05;;;;;;;17.84;49.21;93144.75;4978589;28;21122;-90
2023/05/14 11:06:12;;;;;;;5.72;5.13;;;;;;;17.84;49.42;93145.50;4945569;28;20050;-90
2023/05/14 11:08:38;;;;;;;6.78;5.45;;;;;;;17.85;49.63;93144.25;4943280;28;20130;-92
2023/05/14 11:11:04;;;;;;;5.43;4.93;;;;;;;17.86;49.35;93145.72;4948297;28;20161;-91
2023/05/14 11:13:29;;;;;;;5.38;4.80;;;;;;;17.84;49.41;93150.22;4949139;28;20098;-91
2023/05/14 11:15:54;;;;;;;6.63;4.93;;;;;;;17.84;49.25;93142.75;4944598;28;20039;-90
2023/05/14 11:18:27;;;;;;;5.45;4.90;;;;;;;17.83;49.58;93143.28;4963768;28;20220;-91
2023/05/14 11:20:56;;;;;;;6.80;4.93;;;;;;;17.84;49.49;93139.28;4948108;28;20038;-92
2023/05/14 11:23:23;;;;;;;6.22;4.70;;;;;;;17.84;49.48;93139.28;4944935;28;20061;-91
2023/05/14 11:25:50;;;;;;;5.68;4.55;;;;;;;17.80;49.57;93139.56;4948389;28;20106;-91